createdAt,value
2023-03-18T00:01:53.949Z,10.80
2023-03-18T00:04:20.810Z,10.80
2023-03-18T00:06:47.840Z,10.80
2023-03-18T00:09:15.256Z,10.80
2023-03-18T00:11:41.909Z,10.90
2023-03-18T00:14:11.474Z,10.90
2023-03-18T00:16:38.120Z,10.90
2023-03-18T00:19:04.782Z,11.00
2023-03-18T00:21:31.639Z,10.90
2023-03-18T00:23:58.765Z,10.90
2023-03-18T00:26:27.026Z,10.80
2023-03-18T00:28:55.597Z,10.80
2023-03-18T00:31:22.256Z,10.80
2023-03-18T00:33:50.353Z,10.80
2023-03-18T00:36:18.425Z,10.80
2023-03-18T00:38:46.292Z,10.70
2023-03-18T00:41:15.698Z,10.60
2023-03-18T00:43:46.857Z,10.60
2023-03-18T00:46:16.145Z,10.60
2023-03-18T00:48:43.119Z,10.70
2023-03-18T00:51:13.907Z,10.70
2023-03-18T00:53:41.607Z,10.70
2023-03-18T00:56:08.622Z,10.70
2023-03-18T00:58:36.831Z,10.60
2023-03-18T01:01:06.957Z,10.50
2023-03-18T01:03:33.902Z,10.50
2023-03-18T01:06:02.076Z,10.50
2023-03-18T01:08:30.266Z,10.40
2023-03-18T01:10:57.480Z,10.40
2023-03-18T01:13:25.782Z,10.30
2023-03-18T01:15:52.422Z,10.30
2023-03-18T01:18:18.999Z,10.30
2023-03-18T01:20:45.609Z,10.30
2023-03-18T01:23:12.678Z,10.30
2023-03-18T01:25:40.021Z,10.30
2023-03-18T01:28:07.030Z,10.30
2023-03-18T01:30:35.468Z,10.30
2023-03-18T01:33:04.541Z,10.30
2023-03-18T01:35:32.770Z,10.30
2023-03-18T01:40:26.783Z,10.20
2023-03-18T01:42:56.599Z,10.20
2023-03-18T01:45:25.729Z,10.10
2023-03-18T01:47:52.448Z,10.10
2023-03-18T01:50:21.824Z,10.10
2023-03-18T01:52:49.478Z,10.10
2023-03-18T01:55:18.946Z,10.20
2023-03-18T01:57:46.754Z,10.20
2023-03-18T02:00:15.547Z,10.20
2023-03-18T02:02:43.144Z,10.20
2023-03-18T02:05:11.275Z,10.20
2023-03-18T02:07:38.539Z,10.20
2023-03-18T02:12:40.097Z,10.20
2023-03-18T02:15:10.428Z,10.20
2023-03-18T02:17:40.810Z,10.10
2023-03-18T02:20:07.444Z,10.10
2023-03-18T02:22:38.333Z,10.10
2023-03-18T02:25:05.181Z,10.10
2023-03-18T02:27:33.957Z,10.10
2023-03-18T02:30:02.911Z,10.00
2023-03-18T02:32:30.750Z,10.10
2023-03-18T02:34:59.258Z,10.10
2023-03-18T02:37:25.964Z,10.10
2023-03-18T02:39:55.134Z,10.10
2023-03-18T02:42:31.420Z,10.10
2023-03-18T02:44:58.440Z,10.10
2023-03-18T02:47:26.283Z,10.00
2023-03-18T02:49:53.472Z,10.00
2023-03-18T02:52:20.045Z,10.00
2023-03-18T02:54:46.844Z,10.00
2023-03-18T02:57:13.444Z,10.10
2023-03-18T02:59:40.061Z,10.00
2023-03-18T03:02:07.089Z,10.00
2023-03-18T03:04:33.673Z,10.00
2023-03-18T03:07:01.494Z,10.10
2023-03-18T03:09:28.740Z,10.00
2023-03-18T03:11:55.474Z,9.90
2023-03-18T03:14:22.305Z,9.90
2023-03-18T03:16:49.516Z,9.90
2023-03-18T03:19:16.146Z,9.90
2023-03-18T03:21:43.197Z,9.90
2023-03-18T03:24:10.023Z,9.90
2023-03-18T03:26:36.670Z,9.90
2023-03-18T03:29:04.487Z,9.90
2023-03-18T03:31:31.696Z,9.90
2023-03-18T03:33:58.699Z,9.90
2023-03-18T03:36:26.085Z,9.90
2023-03-18T03:38:52.716Z,9.80
2023-03-18T03:41:19.586Z,9.80
2023-03-18T03:43:46.206Z,9.80
2023-03-18T03:46:12.921Z,9.80
2023-03-18T03:48:39.690Z,9.80
2023-03-18T03:51:07.004Z,9.80
2023-03-18T03:53:34.029Z,9.80
2023-03-18T03:56:00.945Z,9.80
2023-03-18T03:58:27.790Z,9.80
2023-03-18T04:00:54.425Z,9.70
2023-03-18T04:03:21.014Z,9.70
2023-03-18T04:05:47.813Z,9.70
2023-03-18T04:08:14.461Z,9.80
2023-03-18T04:10:41.095Z,9.80
2023-03-18T04:13:07.708Z,9.80
2023-03-18T04:15:34.919Z,9.70
2023-03-18T04:18:06.726Z,9.80
2023-03-18T04:20:37.561Z,9.80
2023-03-18T04:23:04.419Z,9.70
2023-03-18T04:25:31.054Z,9.70
2023-03-18T04:27:57.764Z,9.70
2023-03-18T04:30:25.566Z,9.70
2023-03-18T04:32:52.722Z,9.60
2023-03-18T04:35:19.718Z,9.60
2023-03-18T04:37:46.377Z,9.60
2023-03-18T04:40:13.101Z,9.60
2023-03-18T04:42:39.819Z,9.60
2023-03-18T04:45:06.754Z,9.60
2023-03-18T04:47:34.560Z,9.60
2023-03-18T04:50:01.622Z,9.60
2023-03-18T04:52:28.195Z,9.50
2023-03-18T04:54:54.866Z,9.40
2023-03-18T04:57:21.567Z,9.40
2023-03-18T04:59:48.236Z,9.30
2023-03-18T05:02:15.521Z,9.40
2023-03-18T05:04:42.676Z,9.40
2023-03-18T05:07:12.421Z,9.30
2023-03-18T05:09:39.015Z,9.30
2023-03-18T05:12:05.748Z,9.30
2023-03-18T05:14:32.860Z,9.30
2023-03-18T05:16:59.733Z,9.30
2023-03-18T05:19:26.338Z,9.20
2023-03-18T05:21:52.910Z,9.20
2023-03-18T05:24:19.495Z,9.20
2023-03-18T05:26:46.142Z,9.30
2023-03-18T05:29:12.825Z,9.20
2023-03-18T05:31:39.463Z,9.20
2023-03-18T05:34:07.136Z,9.20
2023-03-18T05:36:33.710Z,9.20
2023-03-18T05:39:00.307Z,9.20
2023-03-18T05:41:26.928Z,9.20
2023-03-18T05:43:53.798Z,9.20
2023-03-18T05:46:20.423Z,9.20
2023-03-18T05:48:47.284Z,9.20
2023-03-18T05:51:13.918Z,9.10
2023-03-18T05:53:40.989Z,9.10
2023-03-18T05:56:07.810Z,9.20
2023-03-18T05:58:34.503Z,9.20
2023-03-18T06:01:01.134Z,9.30
2023-03-18T06:03:27.997Z,9.20
2023-03-18T06:05:54.651Z,9.20
2023-03-18T06:08:22.249Z,9.20
2023-03-18T06:10:48.846Z,9.20
2023-03-18T06:13:15.448Z,9.30
2023-03-18T06:15:42.108Z,9.40
2023-03-18T06:18:09.355Z,9.40
2023-03-18T06:20:36.261Z,9.40
2023-03-18T06:23:03.622Z,9.30
2023-03-18T06:25:30.360Z,9.30
2023-03-18T06:27:57.195Z,9.30
2023-03-18T06:30:23.877Z,9.30
2023-03-18T06:32:50.705Z,9.30
2023-03-18T06:35:17.415Z,9.20
2023-03-18T06:37:44.033Z,9.20
2023-03-18T06:40:12.155Z,9.30
2023-03-18T06:42:39.282Z,9.30
2023-03-18T06:45:06.232Z,9.40
2023-03-18T06:47:32.905Z,9.40
2023-03-18T06:50:00.219Z,9.40
2023-03-18T06:52:27.568Z,9.40
2023-03-18T06:54:54.399Z,9.50
2023-03-18T06:57:21.018Z,9.50
2023-03-18T06:59:48.038Z,9.70
2023-03-18T07:02:15.409Z,9.70
2023-03-18T07:04:42.035Z,9.80
2023-03-18T07:07:08.645Z,9.90
2023-03-18T07:09:36.335Z,10.00
2023-03-18T07:12:03.290Z,10.00
2023-03-18T07:14:30.643Z,10.10
2023-03-18T07:16:57.450Z,10.20
2023-03-18T07:19:24.519Z,10.20
2023-03-18T07:21:51.397Z,10.20
2023-03-18T07:24:18.824Z,10.30
2023-03-18T07:26:45.434Z,10.30
2023-03-18T07:29:12.095Z,10.20
2023-03-18T07:31:38.876Z,10.20
2023-03-18T07:34:05.681Z,10.10
2023-03-18T07:36:32.232Z,10.20
2023-03-18T07:38:59.976Z,10.30
2023-03-18T07:41:26.679Z,10.40
2023-03-18T07:43:53.644Z,10.50
2023-03-18T07:46:20.408Z,10.70
2023-03-18T07:48:50.893Z,11.00
2023-03-18T07:51:17.920Z,11.10
2023-03-18T07:53:45.257Z,11.00
2023-03-18T07:56:11.961Z,11.00
2023-03-18T07:58:38.816Z,11.10
2023-03-18T08:01:06.180Z,11.20
2023-03-18T08:03:33.971Z,11.50
2023-03-18T08:06:01.067Z,11.80
2023-03-18T08:08:28.770Z,12.20
2023-03-18T08:11:00.448Z,12.50
2023-03-18T08:13:27.337Z,12.70
2023-03-18T08:15:54.142Z,12.90
2023-03-18T08:18:20.800Z,13.10
2023-03-18T08:20:48.334Z,13.30
2023-03-18T08:23:15.036Z,13.60
2023-03-18T08:25:42.264Z,13.90
2023-03-18T08:28:08.951Z,13.90
2023-03-18T08:30:35.621Z,14.00
2023-03-18T08:33:02.710Z,14.30
2023-03-18T08:35:29.463Z,14.50
2023-03-18T08:37:56.103Z,14.70
2023-03-18T08:40:22.899Z,14.90
2023-03-18T08:42:49.506Z,15.10
2023-03-18T08:45:16.115Z,15.50
2023-03-18T08:47:42.769Z,15.60
2023-03-18T08:50:09.731Z,15.50
2023-03-18T08:52:38.493Z,15.30
2023-03-18T08:55:06.104Z,15.50
2023-03-18T08:57:33.007Z,15.60
2023-03-18T08:59:59.773Z,15.50
2023-03-18T09:02:27.646Z,15.50
2023-03-18T09:04:55.439Z,15.40
2023-03-18T09:07:22.011Z,15.30
2023-03-18T09:09:48.687Z,15.10
2023-03-18T09:12:15.505Z,15.20
2023-03-18T09:14:43.596Z,15.20
2023-03-18T09:17:10.407Z,15.20
2023-03-18T09:19:37.381Z,15.30
2023-03-18T09:22:04.316Z,15.20
2023-03-18T09:24:31.621Z,15.30
2023-03-18T09:26:59.852Z,15.60
2023-03-18T09:29:27.580Z,15.90
2023-03-18T09:31:55.570Z,16.00
2023-03-18T09:34:22.705Z,16.40
2023-03-18T09:36:51.490Z,16.70
2023-03-18T09:39:21.817Z,16.90
2023-03-18T09:41:57.461Z,17.10
2023-03-18T09:44:31.609Z,17.60
2023-03-18T09:47:18.582Z,18.20
2023-03-18T09:50:09.519Z,18.60
2023-03-18T09:52:39.545Z,19.40
2023-03-18T09:55:18.268Z,20.00
2023-03-18T09:57:46.901Z,20.30
2023-03-18T10:00:24.803Z,20.20
2023-03-18T10:03:11.342Z,20.40
2023-03-18T10:05:50.009Z,20.90
2023-03-18T10:08:23.567Z,21.80
2023-03-18T10:10:50.391Z,21.80
2023-03-18T10:13:25.398Z,21.70
2023-03-18T10:15:56.966Z,21.90
2023-03-18T10:18:23.673Z,22.10
2023-03-18T10:20:50.407Z,22.10
2023-03-18T10:23:17.177Z,22.20
2023-03-18T10:25:48.511Z,21.90
2023-03-18T10:28:26.351Z,21.80
2023-03-18T10:31:07.110Z,21.80
2023-03-18T10:33:48.072Z,22.40
2023-03-18T10:36:14.684Z,22.40
2023-03-18T10:38:44.655Z,23.10
2023-03-18T10:41:22.013Z,23.40
2023-03-18T10:43:50.414Z,24.10
2023-03-18T10:46:18.613Z,24.80
2023-03-18T10:49:02.797Z,25.00
2023-03-18T10:51:29.360Z,25.60
2023-03-18T10:54:04.276Z,26.60
2023-03-18T10:56:31.026Z,28.10
2023-03-18T10:58:58.454Z,29.00
2023-03-18T11:01:28.771Z,28.70
2023-03-18T11:04:03.513Z,27.40
2023-03-18T11:06:47.524Z,26.90
2023-03-18T11:09:18.830Z,26.70
2023-03-18T11:11:46.447Z,26.40
2023-03-18T11:14:15.550Z,25.80
2023-03-18T11:16:50.298Z,24.80
2023-03-18T11:19:29.642Z,23.90
2023-03-18T11:22:14.770Z,23.90
2023-03-18T11:24:44.813Z,24.70
2023-03-18T11:27:14.251Z,26.60
2023-03-18T11:29:44.115Z,27.60
2023-03-18T11:32:38.787Z,28.00
2023-03-18T11:35:06.781Z,28.60
2023-03-18T11:37:34.906Z,28.30
2023-03-18T11:40:13.834Z,28.00
2023-03-18T11:42:44.085Z,28.00
2023-03-18T11:45:26.259Z,28.00
2023-03-18T11:47:54.183Z,28.10
2023-03-18T11:50:25.548Z,27.80
2023-03-18T11:53:17.144Z,26.50
2023-03-18T11:55:48.695Z,26.80
2023-03-18T11:58:33.410Z,27.10
2023-03-18T12:01:06.591Z,28.20
2023-03-18T12:03:36.835Z,27.70
2023-03-18T12:06:16.863Z,28.20
2023-03-18T12:09:05.040Z,29.50
2023-03-18T12:11:52.780Z,30.80
2023-03-18T12:14:35.375Z,30.30
2023-03-18T12:17:10.703Z,31.30
2023-03-18T12:19:37.410Z,31.20
2023-03-18T12:22:06.849Z,31.30
2023-03-18T12:24:45.838Z,30.70
2023-03-18T12:27:20.120Z,28.80
2023-03-18T12:29:58.047Z,28.20
2023-03-18T12:32:43.438Z,28.60
2023-03-18T12:35:42.724Z,28.80
2023-03-18T12:38:27.947Z,28.90
2023-03-18T12:40:57.620Z,28.50
2023-03-18T12:43:28.773Z,29.60
2023-03-18T12:46:10.039Z,28.30
2023-03-18T12:48:44.397Z,28.20
2023-03-18T12:51:21.759Z,27.80
2023-03-18T12:53:50.225Z,27.20
2023-03-18T12:56:21.564Z,26.30
2023-03-18T12:58:51.094Z,26.20
2023-03-18T13:01:24.185Z,27.40
2023-03-18T13:03:53.676Z,28.40
2023-03-18T13:06:20.277Z,29.30
2023-03-18T13:08:50.158Z,30.20
2023-03-18T13:11:19.573Z,30.80
2023-03-18T13:13:49.940Z,31.60
2023-03-18T13:16:18.104Z,32.90
2023-03-18T13:18:46.230Z,34.50
2023-03-18T13:21:14.834Z,35.30
2023-03-18T13:23:47.665Z,35.50
2023-03-18T13:26:33.239Z,34.60
2023-03-18T13:29:00.184Z,32.90
2023-03-18T13:31:45.829Z,33.30
2023-03-18T13:34:18.981Z,33.50
2023-03-18T13:37:04.787Z,34.80
2023-03-18T13:39:40.673Z,34.90
2023-03-18T13:42:14.605Z,35.10
2023-03-18T13:45:05.003Z,35.00
2023-03-18T13:47:32.961Z,35.60
2023-03-18T13:50:01.120Z,36.50
2023-03-18T13:52:35.398Z,36.80
2023-03-18T13:55:21.714Z,36.70
2023-03-18T13:57:57.109Z,36.00
2023-03-18T14:00:26.892Z,35.40
2023-03-18T14:03:05.195Z,35.50
2023-03-18T14:05:32.210Z,34.80
2023-03-18T14:07:59.303Z,33.50
2023-03-18T14:10:26.383Z,33.60
2023-03-18T14:12:53.306Z,32.00
2023-03-18T14:15:26.379Z,29.50
2023-03-18T14:17:55.509Z,28.70
2023-03-18T14:20:23.841Z,27.80
2023-03-18T14:22:52.103Z,26.20
2023-03-18T14:25:21.918Z,24.90
2023-03-18T14:28:06.681Z,25.40
2023-03-18T14:30:37.019Z,28.30
2023-03-18T14:33:03.741Z,31.20
2023-03-18T14:35:34.346Z,31.40
2023-03-18T14:38:04.212Z,32.50
2023-03-18T14:40:35.098Z,33.40
2023-03-18T14:43:06.753Z,32.50
2023-03-18T14:45:39.041Z,29.70
2023-03-18T14:48:14.682Z,27.90
2023-03-18T14:50:44.394Z,26.10
2023-03-18T14:53:29.617Z,24.30
2023-03-18T14:55:57.451Z,23.60
2023-03-18T14:58:24.489Z,23.00
2023-03-18T15:00:53.307Z,22.60
2023-03-18T15:03:24.270Z,24.30
2023-03-18T15:05:51.264Z,24.20
2023-03-18T15:08:22.465Z,23.50
2023-03-18T15:10:50.333Z,22.90
2023-03-18T15:13:19.038Z,22.20
2023-03-18T15:15:45.946Z,21.70
2023-03-18T15:18:28.757Z,21.50
2023-03-18T15:20:56.830Z,21.30
2023-03-18T15:23:38.234Z,22.00
2023-03-18T15:26:09.897Z,23.40
2023-03-18T15:28:36.613Z,24.10
2023-03-18T15:31:05.689Z,25.00
2023-03-18T15:33:36.576Z,26.00
2023-03-18T15:36:05.902Z,26.80
2023-03-18T15:38:33.885Z,26.70
2023-03-18T15:41:09.655Z,26.90
2023-03-18T15:43:40.406Z,26.10
2023-03-18T15:46:13.663Z,25.10
2023-03-18T15:48:41.988Z,24.40
2023-03-18T15:51:23.073Z,23.90
2023-03-18T15:53:52.158Z,23.20
2023-03-18T15:56:24.052Z,22.30
2023-03-18T15:58:57.422Z,21.60
2023-03-18T16:01:24.568Z,21.30
2023-03-18T16:03:51.396Z,21.10
2023-03-18T16:06:18.014Z,20.80
2023-03-18T16:08:46.130Z,20.60
2023-03-18T16:11:14.324Z,20.40
2023-03-18T16:13:43.371Z,20.20
2023-03-18T16:16:15.413Z,20.00
2023-03-18T16:18:43.318Z,19.90
2023-03-18T16:21:13.302Z,19.80
2023-03-18T16:23:40.821Z,19.80
2023-03-18T16:26:15.983Z,19.70
2023-03-18T16:28:44.550Z,19.50
2023-03-18T16:31:12.766Z,19.40
2023-03-18T16:33:41.429Z,19.40
2023-03-18T16:36:16.539Z,19.30
2023-03-18T16:38:45.960Z,19.30
2023-03-18T16:41:12.546Z,19.20
2023-03-18T16:43:39.123Z,19.20
2023-03-18T16:46:06.256Z,19.00
2023-03-18T16:48:33.091Z,18.90
2023-03-18T16:51:02.422Z,18.80
2023-03-18T16:53:30.366Z,18.70
2023-03-18T16:55:58.361Z,18.60
2023-03-18T16:58:28.082Z,18.40
2023-03-18T17:00:54.748Z,18.30
2023-03-18T17:03:21.374Z,18.20
2023-03-18T17:05:50.503Z,18.10
2023-03-18T17:08:18.187Z,18.00
2023-03-18T17:10:45.368Z,17.90
2023-03-18T17:13:16.433Z,17.90
2023-03-18T17:15:44.771Z,17.80
2023-03-18T17:18:13.283Z,17.70
2023-03-18T17:20:41.336Z,17.60
2023-03-18T17:23:09.812Z,17.50
2023-03-18T17:25:36.467Z,17.40
2023-03-18T17:28:04.640Z,17.30
2023-03-18T17:30:39.373Z,17.30
2023-03-18T17:33:18.443Z,17.20
2023-03-18T17:35:45.238Z,17.10
2023-03-18T17:38:13.844Z,17.00
2023-03-18T17:40:42.668Z,17.00
2023-03-18T17:43:16.696Z,16.90
2023-03-18T17:45:43.250Z,16.80
2023-03-18T17:48:12.904Z,16.70
2023-03-18T17:50:42.882Z,16.80
2023-03-18T17:53:19.130Z,16.70
2023-03-18T17:55:45.718Z,16.60
2023-03-18T17:58:17.803Z,16.60
2023-03-18T18:00:45.239Z,16.50
2023-03-18T18:03:19.220Z,16.50
2023-03-18T18:05:45.918Z,16.40
2023-03-18T18:08:17.814Z,16.40
2023-03-18T18:10:45.329Z,16.40
2023-03-18T18:13:22.601Z,16.20
2023-03-18T18:15:50.682Z,16.10
2023-03-18T18:18:24.612Z,16.00
2023-03-18T18:20:53.120Z,16.00
2023-03-18T18:23:30.473Z,15.90
2023-03-18T18:25:58.727Z,15.90
2023-03-18T18:28:29.304Z,15.80
2023-03-18T18:30:56.067Z,15.70
2023-03-18T18:33:22.765Z,15.60
2023-03-18T18:35:49.487Z,15.50
2023-03-18T18:38:16.168Z,15.40
2023-03-18T18:40:42.833Z,15.40
2023-03-18T18:43:09.496Z,15.30
2023-03-18T18:45:36.262Z,15.30
2023-03-18T18:48:10.725Z,15.30
2023-03-18T18:50:37.590Z,15.30
2023-03-18T18:53:13.152Z,15.30
2023-03-18T18:55:40.012Z,15.20
2023-03-18T18:58:09.300Z,15.10
2023-03-18T19:00:35.972Z,15.00
2023-03-18T19:03:03.060Z,15.00
2023-03-18T19:05:29.661Z,14.90
2023-03-18T19:07:57.917Z,14.90
2023-03-18T19:10:24.888Z,14.90
2023-03-18T19:12:51.531Z,14.80
2023-03-18T19:15:21.370Z,14.80
2023-03-18T19:17:47.991Z,14.70
2023-03-18T19:20:26.091Z,14.80
2023-03-18T19:22:53.086Z,14.70
2023-03-18T19:25:19.867Z,14.70
2023-03-18T19:27:46.662Z,14.70
2023-03-18T19:30:20.332Z,14.60
2023-03-18T19:32:47.004Z,14.60
2023-03-18T19:35:13.666Z,14.50
2023-03-18T19:37:42.061Z,14.50
2023-03-18T19:40:20.709Z,14.50
2023-03-18T19:42:47.302Z,14.50
2023-03-18T19:45:14.403Z,14.40
2023-03-18T19:47:42.040Z,14.40
2023-03-18T19:50:16.441Z,14.30
2023-03-18T19:52:43.380Z,14.30
2023-03-18T19:55:14.366Z,14.20
2023-03-18T19:57:42.863Z,14.10
2023-03-18T20:00:17.447Z,14.10
2023-03-18T20:02:44.712Z,14.10
2023-03-18T20:05:16.396Z,14.10
2023-03-18T20:07:43.172Z,14.00
2023-03-18T20:10:11.211Z,14.00
2023-03-18T20:12:39.004Z,14.00
2023-03-18T20:15:07.783Z,14.00
2023-03-18T20:17:38.882Z,14.10
2023-03-18T20:20:07.343Z,14.10
2023-03-18T20:22:38.775Z,14.10
2023-03-18T20:25:08.292Z,14.10
2023-03-18T20:27:34.979Z,14.20
2023-03-18T20:30:01.635Z,14.20
2023-03-18T20:32:28.254Z,14.30
2023-03-18T20:34:54.916Z,14.30
2023-03-18T20:37:35.920Z,14.30
2023-03-18T20:40:04.024Z,14.30
2023-03-18T20:42:30.805Z,14.30
2023-03-18T20:44:57.422Z,14.30
2023-03-18T20:47:24.099Z,14.40
2023-03-18T20:49:50.666Z,14.40
2023-03-18T20:52:25.857Z,14.50
2023-03-18T20:54:52.836Z,14.50
2023-03-18T20:57:19.512Z,14.50
2023-03-18T20:59:46.635Z,14.60
2023-03-18T21:02:30.547Z,14.60
2023-03-18T21:04:57.765Z,14.50
2023-03-18T21:07:24.779Z,14.50
2023-03-18T21:09:51.981Z,14.40
2023-03-18T21:12:19.784Z,14.40
2023-03-18T21:14:46.808Z,14.40
2023-03-18T21:17:20.839Z,14.30
2023-03-18T21:19:51.435Z,14.20
2023-03-18T21:22:22.407Z,14.20
2023-03-18T21:24:49.566Z,14.20
2023-03-18T21:27:20.475Z,14.10
2023-03-18T21:29:48.481Z,14.10
2023-03-18T21:32:22.983Z,14.00
2023-03-18T21:34:50.344Z,13.90
2023-03-18T21:37:18.003Z,13.90
2023-03-18T21:39:44.925Z,13.80
2023-03-18T21:42:17.323Z,13.70
2023-03-18T21:44:44.399Z,13.60
2023-03-18T21:47:12.833Z,13.50
2023-03-18T21:49:39.430Z,13.40
2023-03-18T21:52:05.999Z,13.30
2023-03-18T21:54:32.613Z,13.20
2023-03-18T21:56:59.241Z,13.20
2023-03-18T21:59:27.018Z,13.20
2023-03-18T22:01:53.736Z,13.20
2023-03-18T22:04:20.393Z,13.10
2023-03-18T22:06:46.967Z,13.00
2023-03-18T22:09:13.569Z,13.00
2023-03-18T22:11:40.168Z,12.90
2023-03-18T22:14:06.742Z,12.80
2023-03-18T22:16:33.314Z,12.70
2023-03-18T22:18:59.952Z,12.70
2023-03-18T22:21:27.500Z,12.60
2023-03-18T22:23:54.412Z,12.60
2023-03-18T22:26:21.189Z,12.60
2023-03-18T22:28:49.580Z,12.50
2023-03-18T22:31:18.175Z,12.50
2023-03-18T22:33:44.910Z,12.40
2023-03-18T22:36:12.262Z,12.50
2023-03-18T22:38:38.928Z,12.50
2023-03-18T22:41:06.047Z,12.60
2023-03-18T22:43:36.366Z,12.50
2023-03-18T22:46:04.369Z,12.60
2023-03-18T22:48:31.223Z,12.50
2023-03-18T22:50:59.381Z,12.50
2023-03-18T22:53:28.198Z,12.40
2023-03-18T22:55:56.084Z,12.40
2023-03-18T22:58:27.189Z,12.40
2023-03-18T23:00:54.346Z,12.40
2023-03-18T23:03:22.630Z,12.40
2023-03-18T23:05:50.468Z,12.30
2023-03-18T23:08:17.416Z,12.20
2023-03-18T23:10:44.370Z,12.20
2023-03-18T23:13:18.494Z,12.20
2023-03-18T23:15:45.529Z,12.20
2023-03-18T23:18:14.281Z,12.20
2023-03-18T23:20:41.493Z,12.20
2023-03-18T23:23:08.125Z,12.30
2023-03-18T23:25:35.221Z,12.20
2023-03-18T23:28:02.173Z,12.20
2023-03-18T23:30:29.016Z,12.10
2023-03-18T23:32:56.867Z,12.10
2023-03-18T23:35:23.563Z,12.10
2023-03-18T23:37:50.245Z,12.10
2023-03-18T23:40:17.544Z,12.00
2023-03-18T23:42:44.474Z,12.00
2023-03-18T23:45:11.765Z,11.90
2023-03-18T23:47:38.785Z,11.90
2023-03-18T23:50:06.016Z,11.80
2023-03-18T23:52:32.673Z,11.80
2023-03-18T23:54:59.314Z,11.80
2023-03-18T23:57:26.655Z,11.80
2023-03-18T23:59:53.409Z,11.80
